createdAt,value
2018-03-29T06:07:22.100Z,5.08
2018-03-29T06:07:47.580Z,5.07
2018-03-29T06:08:13.079Z,5.1
2018-03-29T06:08:38.559Z,5.04
2018-03-29T06:09:04.046Z,5.07
2018-03-29T06:09:29.518Z,5.02
2018-03-29T06:09:55.062Z,5.14
2018-03-29T06:10:20.536Z,5.11
2018-03-29T06:10:46.033Z,5.14
2018-03-29T06:11:11.532Z,5.12
2018-03-29T06:11:37.022Z,5.15
2018-03-29T06:12:02.508Z,5.11
2018-03-29T06:12:28.069Z,5.17
2018-03-29T06:12:53.568Z,5.14
2018-03-29T06:13:19.034Z,5.17
2018-03-29T06:13:44.536Z,5.15
2018-03-29T06:14:10.003Z,5.14
2018-03-29T06:14:35.517Z,5.17
2018-03-29T06:15:00.998Z,5.11
2018-03-29T06:15:26.590Z,5.14
2018-03-29T06:15:52.087Z,5.21
2018-03-29T06:16:17.674Z,5.21
2018-03-29T06:16:43.151Z,5.2
2018-03-29T06:17:08.739Z,5.21
2018-03-29T06:17:34.257Z,5.26
2018-03-29T06:17:59.738Z,5.21
2018-03-29T06:18:25.195Z,5.25
2018-03-29T06:18:50.689Z,5.21
2018-03-29T06:19:16.233Z,5.25
2018-03-29T06:19:41.690Z,5.25
2018-03-29T06:20:07.180Z,5.3
2018-03-29T06:20:32.740Z,5.33
2018-03-29T06:20:58.269Z,5.32
2018-03-29T06:21:23.768Z,5.29
2018-03-29T06:21:49.260Z,5.28
2018-03-29T06:22:14.768Z,5.35
2018-03-29T06:22:40.241Z,5.41
2018-03-29T06:23:05.755Z,5.41
2018-03-29T06:23:31.294Z,5.36
2018-03-29T06:23:56.777Z,5.38
2018-03-29T06:24:22.325Z,5.38
2018-03-29T06:24:47.845Z,5.41
2018-03-29T06:25:13.303Z,5.44
2018-03-29T06:25:38.815Z,5.57
2018-03-29T06:26:04.327Z,5.57
2018-03-29T06:26:29.852Z,5.5
2018-03-29T06:26:55.409Z,5.47
2018-03-29T06:27:20.922Z,5.51
2018-03-29T06:27:46.383Z,5.47
2018-03-29T06:28:11.900Z,5.48
2018-03-29T06:28:37.360Z,5.46
2018-03-29T06:29:02.863Z,5.5
2018-03-29T06:29:28.331Z,5.47
2018-03-29T06:29:53.816Z,5.47
2018-03-29T06:30:19.313Z,5.54
2018-03-29T06:30:44.800Z,5.5
2018-03-29T06:31:10.320Z,5.53
2018-03-29T06:31:35.852Z,5.54
2018-03-29T06:32:01.360Z,5.48
2018-03-29T06:32:26.880Z,5.46
2018-03-29T06:32:52.371Z,5.5
2018-03-29T06:33:17.843Z,5.64
2018-03-29T06:33:43.325Z,5.48
2018-03-29T06:34:08.792Z,5.59
2018-03-29T06:34:34.305Z,5.47
2018-03-29T06:34:59.849Z,5.57
2018-03-29T06:35:25.401Z,5.51
2018-03-29T06:35:50.892Z,5.51
2018-03-29T06:36:16.634Z,5.59
2018-03-29T06:36:42.141Z,5.59
2018-03-29T06:37:07.754Z,5.56
2018-03-29T06:37:33.479Z,5.62
2018-03-29T06:37:59.176Z,5.62
2018-03-29T06:38:24.751Z,5.59
2018-03-29T06:38:50.409Z,5.53
2018-03-29T06:39:15.946Z,5.54
2018-03-29T06:39:41.491Z,5.54
2018-03-29T06:40:07.029Z,5.59
2018-03-29T06:40:32.556Z,5.48
2018-03-29T06:40:58.118Z,5.53
2018-03-29T06:41:23.632Z,5.53
2018-03-29T06:41:51.641Z,5.47
2018-03-29T06:42:17.180Z,5.5
2018-03-29T06:42:42.722Z,5.5
2018-03-29T06:43:08.298Z,5.5
2018-03-29T06:43:33.794Z,5.51
2018-03-29T06:43:59.335Z,5.54
2018-03-29T06:44:24.816Z,5.51
2018-03-29T06:44:50.315Z,5.5
2018-03-29T06:45:15.894Z,5.47
2018-03-29T06:45:41.553Z,5.5
2018-03-29T06:46:07.109Z,5.57
2018-03-29T06:46:32.603Z,5.54
2018-03-29T06:46:58.196Z,5.48
2018-03-29T06:47:24.055Z,5.51
2018-03-29T06:47:49.785Z,5.57
2018-03-29T06:48:15.227Z,5.59
2018-03-29T06:48:41.042Z,5.59
2018-03-29T06:49:06.961Z,5.53
2018-03-29T06:49:32.644Z,5.57
2018-03-29T06:49:58.256Z,5.61
2018-03-29T06:50:23.742Z,5.61
2018-03-29T06:50:49.333Z,5.56
2018-03-29T06:51:14.918Z,5.59
2018-03-29T06:51:40.741Z,5.54
2018-03-29T06:52:06.052Z,5.53
2018-03-29T06:52:31.698Z,5.48
2018-03-29T06:52:57.261Z,5.51
2018-03-29T06:53:22.706Z,5.51
2018-03-29T06:53:48.342Z,5.51
2018-03-29T06:54:14.035Z,5.5
2018-03-29T06:54:39.480Z,5.47
2018-03-29T06:55:05.004Z,5.5
2018-03-29T06:55:30.664Z,5.5
2018-03-29T06:55:56.212Z,5.47
2018-03-29T06:56:21.624Z,5.5
2018-03-29T06:56:47.136Z,5.48
2018-03-29T06:57:12.613Z,5.59
2018-03-29T06:57:38.117Z,5.61
2018-03-29T06:58:03.667Z,5.57
2018-03-29T06:58:29.276Z,5.64
2018-03-29T06:58:54.780Z,5.65
2018-03-29T06:59:21.176Z,5.66
2018-03-29T06:59:46.543Z,5.66
2018-03-29T07:00:12.074Z,5.66
2018-03-29T07:00:37.557Z,5.75
2018-03-29T07:01:03.127Z,5.79
2018-03-29T07:01:28.659Z,5.82
2018-03-29T07:02:16.497Z,5.89
2018-03-29T07:02:45.135Z,5.79
2018-03-29T07:03:10.657Z,5.82
2018-03-29T07:03:36.456Z,5.89
2018-03-29T07:04:02.045Z,5.79
2018-03-29T07:04:27.678Z,5.84
2018-03-29T07:04:53.175Z,5.84
2018-03-29T07:05:18.693Z,5.87
2018-03-29T07:05:44.163Z,5.84
2018-03-29T07:06:09.687Z,5.84
2018-03-29T07:06:35.346Z,5.9
2018-03-29T07:07:00.862Z,5.83
2018-03-29T07:07:26.823Z,5.84
2018-03-29T07:07:52.315Z,5.99
2018-03-29T07:08:17.881Z,5.82
2018-03-29T07:08:43.464Z,5.91
2018-03-29T07:09:09.070Z,5.86
2018-03-29T07:09:34.918Z,5.83
2018-03-29T07:10:00.571Z,5.83
2018-03-29T07:10:26.099Z,5.86
2018-03-29T07:10:51.633Z,5.86
2018-03-29T07:11:17.170Z,5.86
2018-03-29T07:11:42.648Z,5.86
2018-03-29T07:12:08.115Z,5.84
2018-03-29T07:12:33.647Z,5.87
2018-03-29T07:12:59.122Z,5.89
2018-03-29T07:13:24.621Z,5.86
2018-03-29T07:13:50.324Z,5.82
2018-03-29T07:14:15.802Z,5.87
2018-03-29T07:14:41.987Z,5.84
2018-03-29T07:15:07.522Z,5.91
2018-03-29T07:15:33.153Z,5.86
2018-03-29T07:15:58.694Z,5.84
2018-03-29T07:16:24.347Z,5.83
2018-03-29T07:16:50.078Z,5.86
2018-03-29T07:17:15.723Z,5.86
2018-03-29T07:17:41.380Z,5.91
2018-03-29T07:18:07.641Z,5.84
2018-03-29T07:18:33.136Z,5.83
2018-03-29T07:18:58.641Z,5.82
2018-03-29T07:19:24.122Z,5.87
2018-03-29T07:19:49.581Z,5.82
2018-03-29T07:20:15.117Z,5.84
2018-03-29T07:20:40.637Z,5.86
2018-03-29T07:21:06.121Z,5.89
2018-03-29T07:21:31.648Z,5.84
2018-03-29T07:21:57.167Z,5.86
2018-03-29T07:22:22.738Z,5.89
2018-03-29T07:22:48.219Z,5.86
2018-03-29T07:23:13.697Z,5.89
2018-03-29T07:23:39.192Z,5.86
2018-03-29T07:24:04.912Z,5.82
2018-03-29T07:24:30.455Z,5.87
2018-03-29T07:24:56.053Z,5.84
2018-03-29T07:25:21.539Z,5.91
2018-03-29T07:25:47.288Z,5.89
2018-03-29T07:26:12.900Z,5.87
2018-03-29T07:26:38.423Z,5.91
2018-03-29T07:27:03.952Z,5.87
2018-03-29T07:27:29.567Z,5.91
2018-03-29T07:27:55.149Z,5.91
2018-03-29T07:28:20.636Z,6.02
2018-03-29T07:28:46.156Z,5.93
2018-03-29T07:29:11.719Z,5.98
2018-03-29T07:29:37.249Z,5.98
2018-03-29T07:30:02.748Z,5.98
2018-03-29T07:30:28.258Z,5.97
2018-03-29T07:30:53.748Z,5.9
2018-03-29T07:31:19.288Z,5.98
2018-03-29T07:31:44.889Z,5.97
2018-03-29T07:32:10.412Z,5.99
2018-03-29T07:32:35.886Z,6.01
2018-03-29T07:33:01.404Z,5.93
2018-03-29T07:33:26.908Z,5.93
2018-03-29T07:33:52.451Z,5.94
2018-03-29T07:34:17.929Z,5.94
2018-03-29T07:34:43.518Z,5.98
2018-03-29T07:35:09.076Z,5.94
2018-03-29T07:35:34.634Z,6.04
2018-03-29T07:36:00.179Z,6.04
2018-03-29T07:36:25.760Z,6.02
2018-03-29T07:36:51.181Z,6.02
2018-03-29T07:37:16.722Z,5.94
2018-03-29T07:37:42.320Z,6.02
2018-03-29T07:38:07.855Z,5.98
2018-03-29T07:38:33.416Z,6.08
2018-03-29T07:38:58.987Z,6.02
2018-03-29T07:39:24.472Z,6.14
2018-03-29T07:39:50.000Z,6.08
2018-03-29T07:40:15.535Z,6.05
2018-03-29T07:40:41.045Z,6.05
2018-03-29T07:41:06.539Z,6.17
2018-03-29T07:41:32.107Z,6.2
2018-03-29T07:41:57.562Z,6.09
2018-03-29T07:42:23.108Z,6.09
2018-03-29T07:42:48.653Z,6.14
2018-03-29T07:43:14.173Z,6.16
2018-03-29T07:43:39.658Z,6.17
2018-03-29T07:44:05.234Z,6.2
2018-03-29T07:44:30.787Z,6.14
2018-03-29T07:44:56.336Z,6.16
2018-03-29T07:45:21.850Z,6.14
2018-03-29T07:45:47.343Z,6.14
2018-03-29T07:46:12.862Z,6.16
2018-03-29T07:46:38.366Z,6.11
2018-03-29T07:47:03.887Z,6.14
2018-03-29T07:47:29.399Z,6.16
2018-03-29T07:47:54.884Z,6.16
2018-03-29T07:48:20.398Z,6.16
2018-03-29T07:48:45.908Z,6.2
2018-03-29T07:49:11.445Z,6.22
2018-03-29T07:49:59.781Z,6.2
2018-03-29T07:50:25.290Z,6.19
2018-03-29T07:50:50.784Z,6.16
2018-03-29T07:51:16.374Z,6.2
2018-03-29T07:51:41.909Z,6.17
2018-03-29T07:52:07.416Z,6.16
2018-03-29T07:52:32.879Z,6.19
2018-03-29T07:52:58.408Z,6.16
2018-03-29T07:53:23.929Z,6.2
2018-03-29T07:53:49.509Z,6.16
2018-03-29T07:54:14.991Z,6.31
2018-03-29T07:54:40.507Z,6.26
2018-03-29T07:55:05.990Z,6.28
2018-03-29T07:55:31.489Z,6.28
2018-03-29T07:55:57.026Z,6.31
2018-03-29T07:56:22.611Z,6.3
2018-03-29T07:56:48.060Z,6.39
2018-03-29T07:57:13.570Z,6.35
2018-03-29T07:57:39.065Z,6.39
2018-03-29T07:58:04.581Z,6.36
2018-03-29T07:58:30.077Z,6.42
2018-03-29T07:58:55.612Z,6.45
2018-03-29T07:59:21.227Z,6.52
2018-03-29T07:59:46.775Z,6.49
2018-03-29T08:00:12.275Z,6.59
2018-03-29T08:00:37.813Z,6.46
2018-03-29T08:01:03.321Z,6.44
2018-03-29T08:01:28.795Z,6.49
2018-03-29T08:01:54.395Z,6.52
2018-03-29T08:02:19.899Z,6.62
2018-03-29T08:02:45.360Z,6.64
2018-03-29T08:03:10.881Z,6.62
2018-03-29T08:03:36.448Z,6.51
2018-03-29T08:04:02.007Z,6.62
2018-03-29T08:04:27.554Z,6.63
2018-03-29T08:04:53.053Z,6.62
2018-03-29T08:05:18.546Z,6.62
2018-03-29T08:05:44.052Z,6.7
2018-03-29T08:06:09.591Z,6.59
2018-03-29T08:06:35.065Z,6.63
2018-03-29T08:07:00.573Z,6.66
2018-03-29T08:07:26.046Z,6.59
2018-03-29T08:07:51.522Z,6.56
2018-03-29T08:08:17.007Z,6.63
2018-03-29T08:08:42.478Z,6.59
2018-03-29T08:09:08.020Z,6.64
2018-03-29T08:09:33.485Z,6.63
2018-03-29T08:09:58.973Z,6.48
2018-03-29T08:10:24.507Z,6.51
2018-03-29T08:10:50.005Z,6.6
2018-03-29T08:11:15.529Z,6.52
2018-03-29T08:11:41.042Z,6.64
2018-03-29T08:12:06.531Z,6.49
2018-03-29T08:12:32.051Z,6.51
2018-03-29T08:12:57.514Z,6.59
2018-03-29T08:13:22.984Z,6.64
2018-03-29T08:13:48.529Z,6.63
2018-03-29T08:14:14.021Z,6.59
2018-03-29T08:14:39.534Z,6.59
2018-03-29T08:15:05.035Z,6.7
2018-03-29T08:15:30.515Z,6.69
2018-03-29T08:15:56.026Z,6.69
2018-03-29T08:16:21.566Z,6.66
2018-03-29T08:16:47.017Z,6.63
2018-03-29T08:17:12.570Z,6.67
2018-03-29T08:17:38.070Z,6.77
2018-03-29T08:18:03.596Z,6.79
2018-03-29T08:18:29.115Z,6.7
2018-03-29T08:18:54.636Z,6.82
2018-03-29T08:19:20.142Z,6.82
2018-03-29T08:19:45.667Z,6.81
2018-03-29T08:20:11.189Z,6.87
2018-03-29T08:20:36.679Z,6.82
2018-03-29T08:21:02.176Z,6.84
2018-03-29T08:21:27.860Z,6.95
2018-03-29T08:21:53.412Z,6.85
2018-03-29T08:22:18.947Z,6.84
2018-03-29T08:22:44.413Z,6.96
2018-03-29T08:23:09.909Z,6.96
2018-03-29T08:23:35.407Z,6.92
2018-03-29T08:24:00.963Z,6.92
2018-03-29T08:24:26.484Z,6.95
2018-03-29T08:24:52.001Z,6.93
2018-03-29T08:25:17.661Z,6.92
2018-03-29T08:25:43.184Z,6.93
2018-03-29T08:26:08.936Z,6.93
2018-03-29T08:26:34.438Z,6.87
2018-03-29T08:26:59.939Z,6.93
2018-03-29T08:27:25.481Z,6.85
2018-03-29T08:27:50.942Z,6.93
2018-03-29T08:28:16.415Z,6.93
2018-03-29T08:28:41.954Z,6.93
2018-03-29T08:29:07.512Z,6.93
2018-03-29T08:29:33.009Z,6.92
2018-03-29T08:29:58.600Z,6.95
2018-03-29T08:30:24.138Z,6.89
2018-03-29T08:30:49.673Z,6.93
2018-03-29T08:31:15.151Z,7.03
2018-03-29T08:31:40.674Z,6.95
2018-03-29T08:32:06.186Z,6.99
2018-03-29T08:32:31.725Z,6.97
2018-03-29T08:32:57.279Z,6.97
2018-03-29T08:33:22.841Z,7.02
2018-03-29T08:33:48.395Z,7.05
2018-03-29T08:34:13.910Z,7.02
2018-03-29T08:34:39.467Z,6.95
2018-03-29T08:35:04.965Z,7.07
2018-03-29T08:35:30.442Z,6.96
2018-03-29T08:35:55.967Z,7.03
2018-03-29T08:36:21.479Z,7.1
2018-03-29T08:36:47.016Z,7.05
2018-03-29T08:37:12.568Z,7
2018-03-29T08:37:38.121Z,7.1
2018-03-29T08:38:03.604Z,7.02
2018-03-29T08:38:29.088Z,6.96
2018-03-29T08:38:54.575Z,7.03
2018-03-29T08:39:20.076Z,6.96
2018-03-29T08:39:45.630Z,7.03
2018-03-29T08:40:11.171Z,7.07
2018-03-29T08:40:36.686Z,7.06
2018-03-29T08:41:02.211Z,6.99
2018-03-29T08:41:27.739Z,7
2018-03-29T08:41:53.270Z,7.02
2018-03-29T08:42:51.840Z,7.03
2018-03-29T08:43:17.445Z,6.97
2018-03-29T08:43:42.936Z,6.95
2018-03-29T08:44:08.477Z,6.93
2018-03-29T08:44:33.988Z,6.95
2018-03-29T08:44:59.478Z,6.96
2018-03-29T08:45:24.966Z,6.89
2018-03-29T08:45:50.513Z,6.93
2018-03-29T08:46:16.006Z,6.95
2018-03-29T08:46:41.492Z,6.95
2018-03-29T08:47:07.000Z,6.92
2018-03-29T08:47:32.508Z,6.95
2018-03-29T08:47:58.058Z,6.96
2018-03-29T08:48:23.645Z,6.95
2018-03-29T08:48:49.167Z,6.96
2018-03-29T08:49:14.649Z,6.93
2018-03-29T08:49:40.206Z,6.93
2018-03-29T08:50:05.704Z,6.93
2018-03-29T08:50:31.290Z,6.97
2018-03-29T08:50:56.745Z,7
2018-03-29T08:51:22.232Z,6.96
2018-03-29T08:51:47.853Z,6.97
2018-03-29T08:52:13.323Z,6.93
2018-03-29T08:52:38.890Z,6.93
2018-03-29T08:53:04.405Z,6.92
2018-03-29T08:53:29.931Z,6.92
2018-03-29T08:53:55.577Z,6.93
2018-03-29T08:54:21.171Z,6.93
2018-03-29T08:54:46.683Z,7
2018-03-29T08:55:12.176Z,6.93
2018-03-29T08:55:37.670Z,6.96
2018-03-29T08:56:03.209Z,6.93
2018-03-29T08:56:28.697Z,6.92
2018-03-29T08:56:54.248Z,6.96
2018-03-29T08:57:19.828Z,6.92
2018-03-29T08:57:45.367Z,6.87
2018-03-29T08:58:10.850Z,6.89
2018-03-29T08:58:36.423Z,6.89
2018-03-29T08:59:01.893Z,6.97
2018-03-29T08:59:27.403Z,7.03
2018-03-29T08:59:52.957Z,6.99
2018-03-29T09:00:18.461Z,7.02
2018-03-29T09:00:43.995Z,7.07
2018-03-29T09:01:42.778Z,7.17
2018-03-29T09:02:08.328Z,7.14
2018-03-29T09:02:33.838Z,7.18
2018-03-29T09:02:59.378Z,7.15
2018-03-29T09:03:24.854Z,7.1
2018-03-29T09:03:50.460Z,7.14
2018-03-29T09:04:15.958Z,7.24
2018-03-29T09:04:41.438Z,7.25
2018-03-29T09:05:06.907Z,7.29
2018-03-29T09:05:32.410Z,7.29
2018-03-29T09:05:57.968Z,7.32
2018-03-29T09:06:23.458Z,7.43
2018-03-29T09:06:48.992Z,7.36
2018-03-29T09:07:15.035Z,7.5
2018-03-29T09:07:40.507Z,7.4
2018-03-29T09:08:06.014Z,7.48
2018-03-29T09:08:31.514Z,7.42
2018-03-29T09:08:57.050Z,7.51
2018-03-29T09:09:22.550Z,7.48
2018-03-29T09:09:48.044Z,7.57
2018-03-29T09:10:13.507Z,7.6
2018-03-29T09:10:39.031Z,7.63
2018-03-29T09:11:04.566Z,7.57
2018-03-29T09:11:30.119Z,7.73
2018-03-29T09:11:55.606Z,7.75
2018-03-29T09:12:21.145Z,7.77
2018-03-29T09:12:46.703Z,7.77
2018-03-29T09:13:12.179Z,7.79
2018-03-29T09:13:37.750Z,7.66
2018-03-29T09:14:03.166Z,7.79
2018-03-29T09:14:28.659Z,7.72
2018-03-29T09:14:54.178Z,7.9
2018-03-29T09:15:19.725Z,7.76
2018-03-29T09:15:45.230Z,7.83
2018-03-29T09:16:10.795Z,7.91
2018-03-29T09:16:36.309Z,7.9
2018-03-29T09:17:01.782Z,7.93
2018-03-29T09:17:27.294Z,7.97
2018-03-29T09:17:52.880Z,8
2018-03-29T09:18:18.482Z,7.94
2018-03-29T09:18:44.045Z,7.94
2018-03-29T09:19:09.575Z,7.95
2018-03-29T09:19:35.097Z,7.94
2018-03-29T09:20:00.657Z,7.97
2018-03-29T09:20:26.163Z,8.05
2018-03-29T09:20:51.711Z,8.08
2018-03-29T09:21:17.228Z,8.08
2018-03-29T09:21:42.710Z,8.1
2018-03-29T09:22:08.246Z,8.06
2018-03-29T09:22:33.764Z,8.08
2018-03-29T09:22:59.236Z,8.09
2018-03-29T09:23:24.746Z,8.12
2018-03-29T09:23:50.273Z,8.13
2018-03-29T09:24:16.699Z,8.15
2018-03-29T09:24:42.214Z,8.19
2018-03-29T09:25:07.711Z,8.19
2018-03-29T09:25:33.207Z,8.16
2018-03-29T09:25:58.784Z,8.15
2018-03-29T09:26:24.340Z,8.2
2018-03-29T09:26:49.908Z,8.15
2018-03-29T09:27:15.455Z,8.23
2018-03-29T09:27:40.939Z,8.26
2018-03-29T09:28:06.409Z,8.16
2018-03-29T09:28:31.941Z,8.19
2018-03-29T09:28:57.497Z,8.23
2018-03-29T09:29:23.041Z,8.2
2018-03-29T09:29:48.558Z,8.24
2018-03-29T09:30:14.023Z,8.2
2018-03-29T09:30:39.598Z,8.16
2018-03-29T09:31:05.101Z,8.23
2018-03-29T09:31:30.618Z,8.24
2018-03-29T09:31:56.095Z,8.2
2018-03-29T09:32:21.632Z,8.23
2018-03-29T09:32:47.149Z,8.23
2018-03-29T09:33:12.653Z,8.31
2018-03-29T09:33:38.247Z,8.28
2018-03-29T09:34:03.783Z,8.27
2018-03-29T09:34:29.324Z,8.27
2018-03-29T09:34:54.866Z,8.3
2018-03-29T09:35:20.375Z,8.19
2018-03-29T09:35:45.834Z,8.23
2018-03-29T09:36:11.408Z,8.26
2018-03-29T09:36:36.884Z,8.24
2018-03-29T09:37:02.390Z,8.28
2018-03-29T09:37:27.864Z,8.24
2018-03-29T09:37:53.402Z,8.24
2018-03-29T09:38:18.925Z,8.19
2018-03-29T09:38:44.439Z,8.15
2018-03-29T09:39:09.969Z,8.19
2018-03-29T09:39:35.575Z,8.24
2018-03-29T09:40:01.063Z,8.16
2018-03-29T09:40:26.518Z,8.18
2018-03-29T09:40:52.045Z,8.18
2018-03-29T09:41:17.523Z,8.19
2018-03-29T09:41:43.050Z,8.2
2018-03-29T09:42:08.591Z,8.19
2018-03-29T09:42:34.093Z,8.16
2018-03-29T09:42:59.611Z,8.23
2018-03-29T09:43:25.138Z,8.24
2018-03-29T09:43:50.681Z,8.23
2018-03-29T09:44:17.061Z,8.16
2018-03-29T09:44:45.668Z,8.2
2018-03-29T09:45:11.291Z,8.19
2018-03-29T09:45:36.766Z,8.24
2018-03-29T09:46:02.529Z,8.13
2018-03-29T09:46:28.188Z,8.19
2018-03-29T09:47:38.115Z,8.13
2018-03-29T09:48:03.631Z,8.12
2018-03-29T09:48:29.143Z,8.16
2018-03-29T09:48:54.599Z,8.16
2018-03-29T09:49:21.076Z,8.13
2018-03-29T09:49:46.484Z,8.2
2018-03-29T09:50:11.954Z,8.18
2018-03-29T09:50:37.483Z,8.16
2018-03-29T09:51:02.985Z,8.13
2018-03-29T09:51:28.505Z,8.09
2018-03-29T09:51:54.078Z,8.12
2018-03-29T09:52:19.582Z,8.09
2018-03-29T09:52:45.124Z,8.09
2018-03-29T09:53:10.633Z,8.06
2018-03-29T09:53:36.151Z,8.12
2018-03-29T09:54:01.636Z,8.06
2018-03-29T09:54:27.178Z,8.08
2018-03-29T09:54:53.663Z,8.12
2018-03-29T09:55:18.795Z,8.06
2018-03-29T09:55:44.358Z,8.12
2018-03-29T09:56:09.899Z,8.06
2018-03-29T09:56:35.455Z,8.1
2018-03-29T09:57:01.034Z,8.09
2018-03-29T09:57:26.577Z,8.1
2018-03-29T09:57:52.114Z,8.13
2018-03-29T09:58:17.690Z,8.15
2018-03-29T09:58:43.229Z,8.19
2018-03-29T09:59:08.716Z,8.16
2018-03-29T09:59:34.206Z,8.15
2018-03-29T09:59:59.704Z,8.19
2018-03-29T10:00:25.267Z,8.23
2018-03-29T10:00:50.771Z,8.27
2018-03-29T10:01:16.299Z,8.31
2018-03-29T10:01:41.833Z,8.36
2018-03-29T10:02:07.273Z,8.3
2018-03-29T10:02:32.838Z,8.51
2018-03-29T10:02:58.379Z,8.45
2018-03-29T10:03:24.027Z,8.49
2018-03-29T10:03:50.705Z,8.56
2018-03-29T10:04:16.218Z,8.52
2018-03-29T10:04:41.681Z,8.55
2018-03-29T10:05:50.410Z,8.66
2018-03-29T10:06:16.926Z,8.71
2018-03-29T10:06:42.448Z,8.69
2018-03-29T10:07:07.988Z,8.79
2018-03-29T10:07:33.494Z,8.78
2018-03-29T10:07:59.079Z,8.76
2018-03-29T10:08:24.627Z,8.76
2018-03-29T10:08:50.135Z,8.79
2018-03-29T10:09:15.657Z,8.82
2018-03-29T10:09:41.212Z,8.87
2018-03-29T10:10:06.743Z,8.94
2018-03-29T10:10:32.270Z,8.92
2018-03-29T10:10:57.843Z,8.88
2018-03-29T10:11:23.299Z,8.88
2018-03-29T10:11:48.839Z,8.85
2018-03-29T10:12:14.342Z,8.95
2018-03-29T10:12:39.845Z,8.92
2018-03-29T10:13:05.395Z,9
2018-03-29T10:13:30.940Z,8.99
2018-03-29T10:13:56.450Z,8.94
2018-03-29T10:14:21.936Z,9.02
2018-03-29T10:14:47.564Z,8.99
2018-03-29T10:15:13.051Z,9.08
2018-03-29T10:15:38.546Z,9.06
2018-03-29T10:16:04.151Z,9.08
2018-03-29T10:16:29.641Z,9.19
2018-03-29T10:16:55.177Z,9.21
2018-03-29T10:17:20.655Z,9.19
2018-03-29T10:17:46.149Z,9.14
2018-03-29T10:18:11.661Z,9.19
2018-03-29T10:18:38.102Z,9.23
2018-03-29T10:19:03.864Z,9.25
2018-03-29T10:19:30.140Z,9.25
2018-03-29T10:19:55.645Z,9.26
2018-03-29T10:20:21.222Z,9.25
2018-03-29T10:20:46.861Z,9.31
2018-03-29T10:21:12.470Z,9.34
2018-03-29T10:21:37.919Z,9.46
2018-03-29T10:22:04.260Z,9.4
2018-03-29T10:22:29.864Z,9.48
2018-03-29T10:22:55.515Z,9.4
2018-03-29T10:23:21.285Z,9.51
2018-03-29T10:23:46.981Z,9.48
2018-03-29T10:24:12.448Z,9.55
2018-03-29T10:24:37.982Z,9.58
2018-03-29T10:25:03.487Z,9.64
2018-03-29T10:25:29.103Z,9.66
2018-03-29T10:25:55.582Z,9.68
2018-03-29T10:26:21.190Z,9.69
2018-03-29T10:26:46.863Z,9.66
2018-03-29T10:27:12.637Z,9.77
2018-03-29T10:27:38.293Z,9.77
2018-03-29T10:28:03.871Z,9.77
2018-03-29T10:28:29.445Z,9.8
2018-03-29T10:28:54.941Z,9.77
2018-03-29T10:29:20.688Z,9.82
2018-03-29T10:29:46.344Z,9.84
2018-03-29T10:30:12.029Z,9.82
2018-03-29T10:30:37.595Z,9.8
2018-03-29T10:31:03.230Z,9.84
2018-03-29T10:31:28.793Z,9.86
2018-03-29T10:31:54.532Z,9.8
2018-03-29T10:32:20.266Z,9.94
2018-03-29T10:32:45.911Z,9.77
2018-03-29T10:33:11.421Z,9.83
2018-03-29T10:33:37.230Z,9.79
2018-03-29T10:34:03.012Z,9.8
2018-03-29T10:34:28.569Z,9.8
2018-03-29T10:34:54.175Z,9.82
2018-03-29T10:35:19.903Z,9.79
2018-03-29T10:35:45.499Z,9.74
2018-03-29T10:36:11.366Z,9.72
2018-03-29T10:36:36.965Z,9.64
2018-03-29T10:37:02.717Z,9.62
2018-03-29T10:37:28.570Z,9.69
2018-03-29T10:37:54.014Z,9.69
2018-03-29T10:38:19.622Z,9.69
2018-03-29T10:38:45.067Z,9.66
2018-03-29T10:39:11.116Z,9.62
2018-03-29T10:39:36.981Z,9.58
2018-03-29T10:40:02.595Z,9.62
2018-03-29T10:40:28.082Z,9.59
2018-03-29T10:40:53.895Z,9.51
2018-03-29T10:41:19.614Z,9.48
2018-03-29T10:41:45.282Z,9.41
2018-03-29T10:42:10.716Z,9.39
2018-03-29T10:43:04.201Z,9.48
2018-03-29T10:43:30.033Z,9.4
2018-03-29T10:43:55.403Z,9.44
2018-03-29T10:44:21.309Z,9.34
2018-03-29T10:44:46.978Z,9.37
2018-03-29T10:45:12.681Z,9.25
2018-03-29T10:45:38.041Z,9.26
2018-03-29T10:46:03.603Z,9.26
2018-03-29T10:46:29.228Z,9.26
2018-03-29T10:46:55.047Z,9.21
2018-03-29T10:47:23.622Z,9.19
2018-03-29T10:47:49.197Z,9.18
2018-03-29T10:48:14.666Z,9.14
2018-03-29T10:48:40.226Z,9.14
2018-03-29T10:49:05.810Z,9.1
2018-03-29T10:49:31.425Z,9.1
2018-03-29T10:49:56.955Z,9.08
2018-03-29T10:50:22.571Z,9.06
2018-03-29T10:50:48.044Z,9.06
2018-03-29T10:51:13.535Z,9.08
2018-03-29T10:51:39.076Z,8.97
2018-03-29T10:52:04.693Z,8.94
2018-03-29T10:52:30.267Z,9.1
2018-03-29T10:52:55.723Z,9.03
2018-03-29T10:53:21.259Z,9
2018-03-29T10:53:46.782Z,8.99
2018-03-29T10:54:12.278Z,8.94
2018-03-29T10:54:37.826Z,9.03
2018-03-29T10:55:03.357Z,9
2018-03-29T10:55:28.900Z,8.92
2018-03-29T10:55:54.451Z,8.95
2018-03-29T10:56:19.875Z,8.89
2018-03-29T10:56:45.379Z,8.91
2018-03-29T10:57:10.864Z,8.91
2018-03-29T10:57:36.453Z,8.94
2018-03-29T10:58:02.043Z,8.87
2018-03-29T10:58:27.621Z,8.88
2018-03-29T10:58:53.073Z,8.82
2018-03-29T10:59:18.561Z,8.84
2018-03-29T10:59:44.226Z,8.85
2018-03-29T11:00:09.857Z,8.82
2018-03-29T11:00:35.462Z,8.82
2018-03-29T11:01:00.907Z,8.87
2018-03-29T11:01:26.534Z,8.85
2018-03-29T11:01:52.165Z,8.85
2018-03-29T11:02:17.635Z,8.84
2018-03-29T11:02:43.260Z,8.87
2018-03-29T11:03:08.687Z,8.87
2018-03-29T11:03:34.239Z,8.91
2018-03-29T11:03:59.858Z,8.91
2018-03-29T11:04:25.305Z,8.91
2018-03-29T11:04:50.788Z,8.97
2018-03-29T11:05:16.297Z,9.03
2018-03-29T11:05:41.862Z,9.11
2018-03-29T11:06:07.445Z,9.14
2018-03-29T11:06:33.120Z,9.23
2018-03-29T11:06:58.575Z,9.28
2018-03-29T11:07:24.031Z,9.32
2018-03-29T11:07:49.589Z,9.29
2018-03-29T11:08:15.317Z,9.43
2018-03-29T11:08:40.742Z,9.43
2018-03-29T11:09:06.264Z,9.5
2018-03-29T11:09:31.821Z,9.51
2018-03-29T11:09:57.320Z,9.56
2018-03-29T11:10:22.813Z,9.62
2018-03-29T11:10:48.290Z,9.58
2018-03-29T11:11:13.760Z,9.62
2018-03-29T11:11:39.255Z,9.62
2018-03-29T11:12:04.766Z,9.69
2018-03-29T11:12:30.301Z,9.83
2018-03-29T11:12:55.899Z,9.82
2018-03-29T11:13:21.506Z,9.8
2018-03-29T11:13:47.024Z,9.86
2018-03-29T11:14:12.573Z,9.91
2018-03-29T11:14:38.129Z,9.89
2018-03-29T11:15:03.735Z,9.95
2018-03-29T11:15:29.357Z,9.99
2018-03-29T11:15:54.851Z,10.09
2018-03-29T11:16:20.472Z,10.04
2018-03-29T11:16:46.168Z,10.1
2018-03-29T11:17:11.602Z,10.05
2018-03-29T11:17:37.084Z,10.07
2018-03-29T11:18:02.567Z,10.12
2018-03-29T11:18:28.109Z,10.12
2018-03-29T11:18:53.581Z,10.1
2018-03-29T11:19:19.096Z,10.1
2018-03-29T11:19:44.711Z,10.1
2018-03-29T11:20:10.214Z,10.07
2018-03-29T11:20:35.703Z,10.13
2018-03-29T11:21:01.400Z,10.12
2018-03-29T11:21:26.992Z,10.1
2018-03-29T11:21:52.665Z,10.09
2018-03-29T11:22:18.725Z,10.05
2018-03-29T11:22:44.084Z,10.1
2018-03-29T11:23:09.517Z,10.2
2018-03-29T11:23:35.038Z,10.19
2018-03-29T11:24:00.503Z,10.22
2018-03-29T11:24:26.022Z,10.15
2018-03-29T11:24:51.571Z,10.2
2018-03-29T11:25:17.116Z,10.22
2018-03-29T11:25:42.562Z,10.25
2018-03-29T11:26:08.209Z,10.22
2018-03-29T11:26:33.694Z,10.16
2018-03-29T11:26:59.232Z,10.25
2018-03-29T11:27:24.712Z,10.2
2018-03-29T11:27:50.185Z,10.22
2018-03-29T11:28:15.926Z,10.23
2018-03-29T11:28:41.345Z,10.19
2018-03-29T11:29:06.929Z,10.2
2018-03-29T11:29:32.331Z,10.15
2018-03-29T11:29:57.977Z,10.19
2018-03-29T11:30:23.536Z,10.22
2018-03-29T11:30:49.011Z,10.22
2018-03-29T11:31:14.519Z,10.22
2018-03-29T11:31:40.047Z,10.15
2018-03-29T11:32:05.785Z,10.19
2018-03-29T11:32:31.537Z,10.16
2018-03-29T11:32:57.140Z,10.2
2018-03-29T11:33:22.582Z,10.17
2018-03-29T11:33:48.468Z,10.3
2018-03-29T11:34:13.977Z,10.22
2018-03-29T11:34:39.487Z,10.31
2018-03-29T11:35:05.183Z,10.23
2018-03-29T11:35:30.849Z,10.3
2018-03-29T11:35:56.413Z,10.38
2018-03-29T11:36:21.957Z,10.35
2018-03-29T11:36:47.531Z,10.35
2018-03-29T11:37:13.051Z,10.38
2018-03-29T11:37:38.698Z,10.44
2018-03-29T11:38:04.196Z,10.48
2018-03-29T11:38:29.711Z,10.51
2018-03-29T11:38:55.476Z,10.56
2018-03-29T11:39:21.078Z,10.54
2018-03-29T11:39:46.618Z,10.56
2018-03-29T11:40:12.143Z,10.53
2018-03-29T11:40:37.676Z,10.63
2018-03-29T11:41:03.219Z,10.64
2018-03-29T11:41:28.769Z,10.61
2018-03-29T11:41:54.248Z,10.6
2018-03-29T11:42:19.796Z,10.63
2018-03-29T11:42:45.513Z,10.68
2018-03-29T11:43:11.256Z,10.68
2018-03-29T11:43:36.898Z,10.79
2018-03-29T11:44:02.465Z,10.75
2018-03-29T11:44:28.068Z,10.78
2018-03-29T11:44:53.712Z,10.76
2018-03-29T11:45:19.229Z,10.81
2018-03-29T11:45:44.780Z,10.82
2018-03-29T11:46:10.256Z,10.81
2018-03-29T11:46:35.772Z,10.76
2018-03-29T11:47:01.400Z,10.81
2018-03-29T11:47:26.886Z,10.97
2018-03-29T11:47:52.514Z,10.96
2018-03-29T11:48:18.194Z,10.92
2018-03-29T11:48:43.712Z,10.96
2018-03-29T11:49:09.263Z,10.96
2018-03-29T11:49:34.857Z,11
2018-03-29T11:50:00.510Z,11.04
2018-03-29T11:50:25.992Z,11.04
2018-03-29T11:50:51.474Z,11.1
2018-03-29T11:51:17.030Z,11.15
2018-03-29T11:51:42.578Z,11.15